Ron Hunter — WDH4137 — position and weather

sailwx.info

Track history (hours):
 
Tides and Currents Weather Stations Pressure Air Temp Water Temp Dewpoint Dewpoint Depression Visibility Wind Speed Wind Dir Waves Ship Positions

Ron Hunter

Owner: HF Marine, LLC, Nashville, TN. More information available from US FCC via Universal Licensing System and Coast Guard Vessel Documentation Center.

Last reported at 2017-Sep-26 09:01 UTC. Time now 2017-Sep-26 09:29 UTC.
Position N 32°20' W 090°54'.

Length 48 m; draft 3 m.

Type: Towing. MMSI: 367614550.

Date/timePositionNaut miles runAvg speedWind from/ knotsBaromVisibWave heightAir tempDewpointWater temp
2017-Sep-26 09:01N 32°20' W 090°54'2 4.4
2017-Sep-26 08:30N 32°18' W 090°55'2 4.8
2017-Sep-26 08:01N 32°17' W 090°57'2 3.9
2017-Sep-26 07:30N 32°15' W 090°59'1 1.5
2017-Sep-26 07:00N 32°14' W 090°59'0 0.2
2017-Sep-26 06:30N 32°14' W 090°59'2 4.3
2017-Sep-26 06:01N 32°12' W 090°59'2 4.3
2017-Sep-26 05:30N 32°10' W 091°00'2 4.2
2017-Sep-26 05:00N 32°08' W 091°00'2 4.0
2017-Sep-26 04:29N 32°07' W 091°03'2 4.7
2017-Sep-26 04:00N 32°08' W 091°05'5 3.4
2017-Sep-26 02:36N 32°04' W 091°03'0 4.1
2017-Sep-26 02:30N 32°03' W 091°03'3 5.2
2017-Sep-26 02:00N 32°01' W 091°05'6 4.2
2017-Sep-26 00:37N 31°58' W 091°11'1 4.6
2017-Sep-26 00:30N 31°58' W 091°11'  
2017-Sep-21 14:22N 31°58' W 091°11'3 6.5
2017-Sep-21 13:53N 31°59' W 091°08'2 6.1
2017-Sep-21 13:31N 31°60' W 091°05'7 5.9
2017-Sep-21 12:19N 32°07' W 091°07'1 2.4
2017-Sep-21 12:00N 32°08' W 091°06'3 5.2
2017-Sep-21 11:31N 32°07' W 091°03'3 5.7
2017-Sep-21 11:01N 32°09' W 091°00'3 6.8
2017-Sep-21 10:31N 32°12' W 090°59'3 7.0
2017-Sep-21 10:01N 32°15' W 090°58'3 6.5
2017-Sep-21 09:31N 32°18' W 090°56'0 0.9
2017-Sep-21 09:01N 32°18' W 090°55'0 0.0
2017-Sep-21 08:31N 32°18' W 090°55'0 0.0
2017-Sep-21 08:01N 32°18' W 090°55'0 0.0
2017-Sep-21 07:30N 32°18' W 090°55'0 0.0
2017-Sep-21 07:01N 32°18' W 090°55'0 0.0
2017-Sep-21 06:30N 32°18' W 090°55'0 0.0
2017-Sep-21 06:01N 32°18' W 090°55'0 0.0
2017-Sep-21 05:30N 32°18' W 090°55'0 0.0
2017-Sep-21 05:01N 32°18' W 090°55'0 0.0
2017-Sep-21 04:30N 32°18' W 090°55'0 0.0
2017-Sep-21 04:01N 32°18' W 090°55'0 0.0
2017-Sep-21 03:31N 32°18' W 090°55'0 0.0
2017-Sep-21 03:01N 32°18' W 090°55'0 0.0
2017-Sep-21 02:31N 32°18' W 090°55'0 0.0
2017-Sep-21 02:00N 32°18' W 090°55'0 0.0
2017-Sep-21 01:31N 32°18' W 090°55'0 0.0
2017-Sep-21 01:00N 32°18' W 090°55'0 0.0
2017-Sep-21 00:30N 32°18' W 090°55'0 0.0
2017-Sep-21 00:01N 32°18' W 090°55'0 0.0
2017-Sep-20 23:31N 32°18' W 090°55'0 0.0
2017-Sep-20 23:00N 32°18' W 090°55'0 0.0
2017-Sep-20 22:31N 32°18' W 090°55'0 0.0
2017-Sep-20 22:01N 32°18' W 090°55'0 0.0
2017-Sep-20 21:31N 32°18' W 090°55'0 0.0
2017-Sep-20 21:01N 32°18' W 090°55'0 0.0
2017-Sep-20 20:31N 32°18' W 090°55'0 0.2
2017-Sep-20 20:01N 32°18' W 090°55'3 5.3
2017-Sep-20 19:31N 32°20' W 090°54'3 6.1
2017-Sep-20 19:01N 32°21' W 090°58'2 4.9
2017-Sep-20 18:30N 32°22' W 091°00'3 6.1
2017-Sep-20 18:01N 32°25' W 091°00'3 6.3
2017-Sep-20 17:31N 32°26' W 091°04'3 6.2
2017-Sep-20 17:01N 32°28' W 091°07'1 1.1
2017-Sep-20 16:31N 32°29' W 091°07'0 0.0
2017-Sep-20 16:01N 32°29' W 091°07'0 0.0
2017-Sep-20 15:31N 32°29' W 091°07'0 0.0
2017-Sep-20 15:01N 32°29' W 091°07'0 0.0
2017-Sep-20 14:01N 32°29' W 091°07'0 0.0
2017-Sep-20 13:31N 32°29' W 091°07'0 0.0
2017-Sep-20 13:01N 32°29' W 091°07'0 0.0
2017-Sep-20 12:30N 32°29' W 091°07'0 0.0
2017-Sep-20 12:01N 32°29' W 091°07'0 0.0
2017-Sep-20 11:31N 32°29' W 091°07'0 0.0
2017-Sep-20 11:01N 32°29' W 091°07'0 0.0
2017-Sep-20 10:31N 32°29' W 091°07'0 0.0
2017-Sep-20 10:01N 32°29' W 091°07'0 0.0
2017-Sep-20 09:31N 32°29' W 091°07'0 0.0
2017-Sep-20 09:01N 32°29' W 091°07'0 0.0
2017-Sep-20 08:31N 32°29' W 091°07'0 0.3
2017-Sep-20 08:01N 32°29' W 091°07'0 0.2
2017-Sep-20 07:31N 32°29' W 091°07'2 1.6
2017-Sep-20 06:17N 32°31' W 091°06'0 0.0
2017-Sep-20 05:58N 32°31' W 091°06'0 0.2
2017-Sep-20 05:14N 32°31' W 091°06'0 0.6
2017-Sep-20 04:52N 32°31' W 091°06'1 1.9
2017-Sep-20 04:30N 32°32' W 091°06'3 5.1
2017-Sep-20 04:01N 32°34' W 091°07'3 5.3
2017-Sep-20 03:31N 32°36' W 091°09'3 6.6
2017-Sep-20 03:00N 32°40' W 091°08'  
Track history (hours):
 
Tides and Currents Weather Stations Pressure Air Temp Water Temp Dewpoint Dewpoint Depression Visibility Wind Speed Wind Dir Waves Ship Positions

Ron Hunter

Owner: HF Marine, LLC, Nashville, TN. More information available from US FCC via Universal Licensing System and Coast Guard Vessel Documentation Center.

Last reported at 2017-Sep-26 09:01 UTC. Time now 2017-Sep-26 09:29 UTC.
Position N 32°20' W 090°54'.

Length 48 m; draft 3 m.

Type: Towing. MMSI: 367614550.

Date/timePositionNaut miles runAvg speedWind from/ knotsBaromVisibWave heightAir tempDewpointWater temp
2017-Sep-26 09:01N 32°20' W 090°54'2 4.4
2017-Sep-26 08:30N 32°18' W 090°55'2 4.8
2017-Sep-26 08:01N 32°17' W 090°57'2 3.9
2017-Sep-26 07:30N 32°15' W 090°59'1 1.5
2017-Sep-26 07:00N 32°14' W 090°59'0 0.2
2017-Sep-26 06:30N 32°14' W 090°59'2 4.3
2017-Sep-26 06:01N 32°12' W 090°59'2 4.3
2017-Sep-26 05:30N 32°10' W 091°00'2 4.2
2017-Sep-26 05:00N 32°08' W 091°00'2 4.0
2017-Sep-26 04:29N 32°07' W 091°03'2 4.7
2017-Sep-26 04:00N 32°08' W 091°05'5 3.4
2017-Sep-26 02:36N 32°04' W 091°03'0 4.1
2017-Sep-26 02:30N 32°03' W 091°03'3 5.2
2017-Sep-26 02:00N 32°01' W 091°05'6 4.2
2017-Sep-26 00:37N 31°58' W 091°11'1 4.6
2017-Sep-26 00:30N 31°58' W 091°11'  
2017-Sep-21 14:22N 31°58' W 091°11'3 6.5
2017-Sep-21 13:53N 31°59' W 091°08'2 6.1
2017-Sep-21 13:31N 31°60' W 091°05'7 5.9
2017-Sep-21 12:19N 32°07' W 091°07'1 2.4
2017-Sep-21 12:00N 32°08' W 091°06'3 5.2
2017-Sep-21 11:31N 32°07' W 091°03'3 5.7
2017-Sep-21 11:01N 32°09' W 091°00'3 6.8
2017-Sep-21 10:31N 32°12' W 090°59'3 7.0
2017-Sep-21 10:01N 32°15' W 090°58'3 6.5
2017-Sep-21 09:31N 32°18' W 090°56'0 0.9
2017-Sep-21 09:01N 32°18' W 090°55'0 0.0
2017-Sep-21 08:31N 32°18' W 090°55'0 0.0
2017-Sep-21 08:01N 32°18' W 090°55'0 0.0
2017-Sep-21 07:30N 32°18' W 090°55'0 0.0
2017-Sep-21 07:01N 32°18' W 090°55'0 0.0
2017-Sep-21 06:30N 32°18' W 090°55'0 0.0
2017-Sep-21 06:01N 32°18' W 090°55'0 0.0
2017-Sep-21 05:30N 32°18' W 090°55'0 0.0
2017-Sep-21 05:01N 32°18' W 090°55'0 0.0
2017-Sep-21 04:30N 32°18' W 090°55'0 0.0
2017-Sep-21 04:01N 32°18' W 090°55'0 0.0
2017-Sep-21 03:31N 32°18' W 090°55'0 0.0
2017-Sep-21 03:01N 32°18' W 090°55'0 0.0
2017-Sep-21 02:31N 32°18' W 090°55'0 0.0
2017-Sep-21 02:00N 32°18' W 090°55'0 0.0
2017-Sep-21 01:31N 32°18' W 090°55'0 0.0
2017-Sep-21 01:00N 32°18' W 090°55'0 0.0
2017-Sep-21 00:30N 32°18' W 090°55'0 0.0
2017-Sep-21 00:01N 32°18' W 090°55'0 0.0
2017-Sep-20 23:31N 32°18' W 090°55'0 0.0
2017-Sep-20 23:00N 32°18' W 090°55'0 0.0
2017-Sep-20 22:31N 32°18' W 090°55'0 0.0
2017-Sep-20 22:01N 32°18' W 090°55'0 0.0
2017-Sep-20 21:31N 32°18' W 090°55'0 0.0
2017-Sep-20 21:01N 32°18' W 090°55'0 0.0
2017-Sep-20 20:31N 32°18' W 090°55'0 0.2
2017-Sep-20 20:01N 32°18' W 090°55'3 5.3
2017-Sep-20 19:31N 32°20' W 090°54'3 6.1
2017-Sep-20 19:01N 32°21' W 090°58'2 4.9
2017-Sep-20 18:30N 32°22' W 091°00'3 6.1
2017-Sep-20 18:01N 32°25' W 091°00'3 6.3
2017-Sep-20 17:31N 32°26' W 091°04'3 6.2
2017-Sep-20 17:01N 32°28' W 091°07'1 1.1
2017-Sep-20 16:31N 32°29' W 091°07'0 0.0
2017-Sep-20 16:01N 32°29' W 091°07'0 0.0
2017-Sep-20 15:31N 32°29' W 091°07'0 0.0
2017-Sep-20 15:01N 32°29' W 091°07'0 0.0
2017-Sep-20 14:01N 32°29' W 091°07'0 0.0
2017-Sep-20 13:31N 32°29' W 091°07'0 0.0
2017-Sep-20 13:01N 32°29' W 091°07'0 0.0
2017-Sep-20 12:30N 32°29' W 091°07'0 0.0
2017-Sep-20 12:01N 32°29' W 091°07'0 0.0
2017-Sep-20 11:31N 32°29' W 091°07'0 0.0
2017-Sep-20 11:01N 32°29' W 091°07'0 0.0
2017-Sep-20 10:31N 32°29' W 091°07'0 0.0
2017-Sep-20 10:01N 32°29' W 091°07'0 0.0
2017-Sep-20 09:31N 32°29' W 091°07'0 0.0
2017-Sep-20 09:01N 32°29' W 091°07'0 0.0
2017-Sep-20 08:31N 32°29' W 091°07'0 0.3
2017-Sep-20 08:01N 32°29' W 091°07'0 0.2
2017-Sep-20 07:31N 32°29' W 091°07'2 1.6
2017-Sep-20 06:17N 32°31' W 091°06'0 0.0
2017-Sep-20 05:58N 32°31' W 091°06'0 0.2
2017-Sep-20 05:14N 32°31' W 091°06'0 0.6
2017-Sep-20 04:52N 32°31' W 091°06'1 1.9
2017-Sep-20 04:30N 32°32' W 091°06'3 5.1
2017-Sep-20 04:01N 32°34' W 091°07'3 5.3
2017-Sep-20 03:31N 32°36' W 091°09'3 6.6
2017-Sep-20 03:00N 32°40' W 091°08'  

Dump ship's entire track history